Grant, CO (80448)

7:23 AM MDT on August 23, 2014 (GMT -0600)
RAWS KENOSHA PASS CO US | Change Station
CLOSE
Current Station
Personal Weather Station
Location: Grant, CO
Elevation: 10200 ft
Nearby Weather Stations

Elev 10200 ft 39.41 °N, 105.75 °W | Updated 29 minutes ago

Clear
Clear
40 °F
Feels Like 37 °F
N
4
Wind Variable Wind from SSW
Gusts 7.0 mph

Today
High -- | Low -- °F
--% Chance of Precip.
Yesterday
High -- | Low -- °F
Precip. -- in
6:23 AM 7:47 PM
Waning Crescent, 4% visible
Pressure 30.39 in
Visibility 10.0 miles
Clouds Clear
Windchill 37 °F
Dew Point 40 °F
Humidity 99%
Rainfall 0.30 in
Snow Depth 0 in , 0 in , 0 in
UV 0 out of 12
Pollen 9.20 out of 12
Air Quality Not available.
Flu Activity Not available.
METAR K0CO 231314Z AUTO 31018G22KT 10SM CLR 01/00 A3039 RMK AO2

More Conditions Fewer Conditions

Pressure 30.39 in
Visibility 10.0 miles
Clouds Clear
Windchill 37 °F
Dew Point 40 °F
Humidity 99%
Rainfall 0.30 in
Snow Depth 0 in , 0 in , 0 in
UV 0 out of 12
Pollen 9.20 out of 12
Air Quality Not available.
Flu Activity Not available.
METAR K0CO 231314Z AUTO 31018G22KT 10SM CLR 01/00 A3039 RMK AO2

More Conditions Fewer Conditions

10-Day Weather Forecast

Almanac

Astronomy

Aug. 23, 2014 Rise Set
Actual Time 6:23 AM MDT 7:47 PM MDT
Civil Twilight 5:54 AM MDT 8:15 PM MDT
Nautical Twilight 5:21 AM MDT 8:49 PM MDT
Astronomical Twilight 4:45 AM MDT 9:24 PM MDT
Moon 4:41 AM MDT 6:33 PM MDT
Length of Visible Light 14h 20m
Length of Day
13h 24m
Tomorrow will be 2m 24s shorter.
Waning Crescent, 4% of the Moon is Illuminated
Today
Waning Crescent
Aug 25
New
Sep 2
First Quarter
Sep 8
Full
Sep 15
Last Quarter

Today's Extremes

State Highs State Lows

Community

WunderPhotos

Upload Photos

1,746,451 photos uploaded!

WunderBlogs® & News

By Dr. Jeff Masters
Director of Meteorology, Weather Underground
By Kari Strenfel
Meteorologist, Weather Underground
By Christopher C. Burt
Weather Historian, Weather Underground
August 23, 2014
August 23, 2014
August 23, 2014

Nearby

Snow Depth

Station Depth Elevation
Jackwhacker Gulch 0 in 10960 ft
Michigan Creek 0 in 10600 ft
Grizzly Peak 0 in 11100 ft
Echo Lake 0 in 10600 ft
Loveland Basin 2 in 11400 ft

Earthquake Activity

City Distance Mag. Time & Date
No recent earthquake activity has been reported nearby.
Minimum magnitude displayed is 2.5.

Coastal Water Temperatures

Place Temperature
No Stations Reporting

Nearby Weather Stations